createdAt,value
2023-04-12T00:00:18.232Z,14.40
2023-04-12T00:02:54.555Z,15.85
2023-04-12T00:05:31.135Z,18.00
2023-04-12T00:08:11.192Z,18.13
2023-04-12T00:10:47.095Z,15.57
2023-04-12T00:13:22.158Z,16.95
2023-04-12T00:15:57.547Z,18.00
2023-04-12T00:18:33.498Z,16.15
2023-04-12T00:21:11.098Z,15.57
2023-04-12T00:23:49.820Z,14.57
2023-04-12T00:26:25.480Z,12.40
2023-04-12T00:29:00.490Z,12.10
2023-04-12T00:31:36.495Z,17.15
2023-04-12T00:36:46.974Z,17.63
2023-04-12T00:39:24.714Z,13.85
2023-04-12T00:42:01.188Z,18.63
2023-04-12T00:44:37.397Z,14.67
2023-04-12T00:47:12.227Z,14.98
2023-04-12T00:49:48.715Z,11.90
2023-04-12T00:52:28.474Z,13.35
2023-04-12T00:55:02.706Z,13.77
2023-04-12T00:57:41.074Z,12.02
2023-04-12T01:00:22.394Z,13.63
2023-04-12T01:02:59.249Z,15.55
2023-04-12T01:05:36.478Z,14.65
2023-04-12T01:08:16.299Z,14.40
2023-04-12T01:10:56.863Z,12.60
2023-04-12T01:13:38.841Z,12.63
2023-04-12T01:16:17.000Z,11.55
2023-04-12T01:18:55.797Z,12.95
2023-04-12T01:21:34.824Z,12.20
2023-04-12T01:24:26.382Z,15.50
2023-04-12T01:27:03.453Z,13.95
2023-04-12T01:29:41.851Z,10.88
2023-04-12T01:32:16.521Z,11.93
2023-04-12T01:34:52.180Z,10.57
2023-04-12T01:40:01.842Z,9.83
2023-04-12T01:42:38.731Z,13.98
2023-04-12T01:45:17.429Z,9.93
2023-04-12T01:47:52.503Z,14.32
2023-04-12T01:50:29.328Z,12.23
2023-04-12T01:53:06.799Z,9.93
2023-04-12T01:55:43.157Z,13.13
2023-04-12T01:58:20.793Z,11.27
2023-04-12T02:00:58.529Z,10.23
2023-04-12T02:03:34.364Z,11.00
2023-04-12T02:06:12.665Z,10.32
2023-04-12T02:08:47.979Z,8.85
2023-04-12T02:11:23.128Z,13.27
2023-04-12T02:13:58.885Z,14.17
2023-04-12T02:16:42.721Z,10.27
2023-04-12T02:19:17.858Z,10.65
2023-04-12T02:21:55.081Z,11.85
2023-04-12T02:24:31.521Z,9.52
2023-04-12T02:27:06.714Z,11.77
2023-04-12T02:29:42.659Z,9.52
2023-04-12T02:32:21.360Z,17.65
2023-04-12T02:34:57.996Z,12.95
2023-04-12T02:37:33.970Z,9.40
2023-04-12T02:40:10.677Z,12.00
2023-04-12T02:42:47.963Z,10.13
2023-04-12T02:45:25.244Z,13.00
2023-04-12T02:48:06.878Z,11.10
2023-04-12T02:50:42.611Z,13.18
2023-04-12T02:53:23.986Z,6.80
2023-04-12T02:56:19.638Z,9.77
2023-04-12T02:59:00.655Z,9.48
2023-04-12T03:01:59.087Z,8.05
2023-04-12T03:04:41.265Z,6.75
2023-04-12T03:07:23.539Z,10.25
2023-04-12T03:10:00.498Z,10.98
2023-04-12T03:12:36.066Z,7.27
2023-04-12T03:15:28.521Z,10.27
2023-04-12T03:18:05.509Z,10.05
2023-04-12T03:20:53.534Z,14.10
2023-04-12T03:23:24.524Z,11.40
2023-04-12T03:26:12.145Z,12.70
2023-04-12T03:28:54.359Z,12.70
2023-04-12T03:31:31.780Z,12.23
2023-04-12T03:34:12.731Z,13.55
2023-04-12T03:36:55.793Z,12.47
2023-04-12T03:39:48.578Z,12.32
2023-04-12T03:42:32.974Z,16.65
2023-04-12T03:45:18.319Z,15.15
2023-04-12T03:47:58.965Z,13.30
2023-04-12T03:50:42.808Z,11.65
2023-04-12T03:53:22.170Z,12.98
2023-04-12T03:55:58.010Z,10.93
2023-04-12T03:58:38.216Z,12.27
2023-04-12T04:01:18.419Z,12.88
2023-04-12T04:03:54.857Z,9.07
2023-04-12T04:06:34.643Z,12.40
2023-04-12T04:09:13.047Z,9.65
2023-04-12T04:11:48.117Z,12.60
2023-04-12T04:14:22.708Z,13.07
2023-04-12T04:16:59.587Z,15.52
2023-04-12T04:19:34.693Z,17.20
2023-04-12T04:22:10.606Z,19.30
2023-04-12T04:24:48.834Z,12.45
2023-04-12T04:27:24.108Z,12.80
2023-04-12T04:30:02.997Z,12.57
2023-04-12T04:32:38.991Z,12.10
2023-04-12T04:35:16.416Z,9.67
2023-04-12T04:38:06.828Z,12.10
2023-04-12T04:40:48.324Z,14.50
2023-04-12T04:43:22.542Z,15.55
2023-04-12T04:46:03.429Z,14.45
2023-04-12T04:48:41.188Z,13.10
2023-04-12T04:51:16.266Z,11.80
2023-04-12T04:53:52.794Z,13.93
2023-04-12T04:56:31.895Z,12.32
2023-04-12T04:59:08.399Z,9.95
2023-04-12T05:01:44.459Z,8.52
2023-04-12T05:04:20.709Z,12.10
2023-04-12T05:09:34.451Z,14.73
2023-04-12T05:12:13.070Z,12.67
2023-04-12T05:15:08.568Z,9.32
2023-04-12T05:17:47.693Z,9.52
2023-04-12T05:23:00.004Z,12.00
2023-04-12T05:25:35.008Z,11.25
2023-04-12T05:28:18.926Z,8.77
2023-04-12T05:30:54.422Z,8.40
2023-04-12T05:33:35.015Z,9.13
2023-04-12T05:36:11.427Z,10.20
2023-04-12T05:38:49.710Z,9.45
2023-04-12T05:41:25.695Z,9.65
2023-04-12T05:44:04.333Z,9.68
2023-04-12T05:46:41.955Z,8.00
2023-04-12T05:49:20.868Z,9.45
2023-04-12T05:51:59.152Z,6.97
2023-04-12T05:54:37.658Z,8.93
2023-04-12T05:57:14.712Z,11.75
2023-04-12T05:59:55.540Z,8.25
2023-04-12T06:02:31.318Z,7.90
2023-04-12T06:05:11.062Z,9.45
2023-04-12T06:07:47.265Z,15.10
2023-04-12T06:10:24.825Z,10.02
2023-04-12T06:13:04.027Z,8.30
2023-04-12T06:15:47.421Z,9.57
2023-04-12T06:18:24.265Z,8.27
2023-04-12T06:21:00.826Z,9.23
2023-04-12T06:23:39.864Z,7.07
2023-04-12T06:26:18.935Z,9.13
2023-04-12T06:28:55.572Z,8.75
2023-04-12T06:31:35.253Z,10.27
2023-04-12T06:34:10.854Z,15.75
2023-04-12T06:36:48.084Z,16.05
2023-04-12T06:39:31.375Z,10.13
2023-04-12T06:42:15.059Z,10.75
2023-04-12T06:44:53.347Z,7.97
2023-04-12T06:47:33.465Z,8.10
2023-04-12T06:50:11.216Z,7.97
2023-04-12T06:52:49.740Z,10.53
2023-04-12T06:55:27.500Z,7.95
2023-04-12T06:58:03.726Z,7.20
2023-04-12T07:00:39.820Z,9.23
2023-04-12T07:03:24.652Z,8.32
2023-04-12T07:06:07.691Z,9.00
2023-04-12T07:08:51.999Z,7.18
2023-04-12T07:11:38.325Z,7.15
2023-04-12T07:14:13.598Z,7.78
2023-04-12T07:16:51.940Z,6.67
2023-04-12T07:19:31.840Z,5.70
2023-04-12T07:22:07.084Z,8.20
2023-04-12T07:24:46.713Z,4.75
2023-04-12T07:27:23.248Z,5.95
2023-04-12T07:30:00.046Z,4.40
2023-04-12T07:32:35.708Z,4.57
2023-04-12T07:35:16.356Z,5.57
2023-04-12T07:37:55.072Z,5.93
2023-04-12T07:40:30.808Z,5.70
2023-04-12T07:43:08.686Z,6.95
2023-04-12T07:45:44.994Z,3.22
2023-04-12T07:48:23.061Z,4.32
2023-04-12T07:51:07.542Z,4.60
2023-04-12T07:53:52.250Z,3.85
2023-04-12T07:56:29.690Z,6.20
2023-04-12T07:59:06.989Z,7.50
2023-04-12T08:01:44.302Z,6.88
2023-04-12T08:04:23.941Z,6.32
2023-04-12T08:07:04.181Z,3.40
2023-04-12T08:09:44.080Z,4.70
2023-04-12T08:12:27.855Z,5.20
2023-04-12T08:15:07.536Z,3.27
2023-04-12T08:17:44.175Z,3.55
2023-04-12T08:20:23.284Z,3.30
2023-04-12T08:23:06.431Z,4.32
2023-04-12T08:25:44.515Z,2.95
2023-04-12T08:28:23.034Z,3.72
2023-04-12T08:30:58.791Z,4.30
2023-04-12T08:33:39.555Z,4.88
2023-04-12T08:36:16.489Z,4.85
2023-04-12T08:38:58.555Z,6.45
2023-04-12T08:41:38.548Z,5.00
2023-04-12T08:44:23.361Z,5.00
2023-04-12T08:46:59.165Z,5.80
2023-04-12T08:52:16.912Z,5.07
2023-04-12T08:54:57.323Z,3.95
2023-04-12T08:57:34.262Z,7.40
2023-04-12T09:00:13.941Z,6.80
2023-04-12T09:02:51.719Z,9.40
2023-04-12T09:05:32.294Z,7.55
2023-04-12T09:08:10.454Z,4.15
2023-04-12T09:10:48.876Z,6.45
2023-04-12T09:13:37.433Z,5.20
2023-04-12T09:16:15.558Z,4.77
2023-04-12T09:19:07.310Z,3.17
2023-04-12T09:21:55.775Z,5.00
2023-04-12T09:24:33.208Z,4.45
2023-04-12T09:27:19.477Z,3.90
2023-04-12T09:29:54.851Z,5.47
2023-04-12T09:32:35.486Z,3.50
2023-04-12T09:35:14.814Z,4.68
2023-04-12T09:37:56.124Z,5.10
2023-04-12T09:40:44.418Z,6.70
2023-04-12T09:43:25.089Z,5.45
2023-04-12T09:46:05.021Z,4.00
2023-04-12T09:48:44.905Z,7.15
2023-04-12T09:51:30.511Z,2.83
2023-04-12T09:54:13.082Z,3.30
2023-04-12T09:57:22.482Z,4.85
2023-04-12T10:00:02.072Z,4.13
2023-04-12T10:02:48.114Z,3.30
2023-04-12T10:05:27.606Z,5.40
2023-04-12T10:08:05.603Z,2.97
2023-04-12T10:10:41.517Z,4.28
2023-04-12T10:13:17.895Z,4.20
2023-04-12T10:15:58.413Z,3.30
2023-04-12T10:18:34.132Z,2.17
2023-04-12T10:21:13.370Z,2.97
2023-04-12T10:23:52.353Z,4.78
2023-04-12T10:26:29.342Z,3.70
2023-04-12T10:29:28.693Z,3.30
2023-04-12T10:32:23.938Z,4.35
2023-04-12T10:35:06.326Z,4.85
2023-04-12T10:38:05.775Z,2.93
2023-04-12T10:40:42.203Z,3.40
2023-04-12T10:43:31.484Z,2.70
2023-04-12T10:46:11.401Z,3.70
2023-04-12T10:48:56.219Z,4.70
2023-04-12T10:51:33.831Z,2.85
2023-04-12T10:54:35.971Z,4.80
2023-04-12T10:57:50.094Z,4.95
2023-04-12T11:00:29.479Z,3.37
2023-04-12T11:03:15.217Z,2.28
2023-04-12T11:06:20.077Z,4.10
2023-04-12T11:09:32.570Z,2.60
2023-04-12T11:12:10.973Z,5.25
2023-04-12T11:14:52.778Z,3.60
2023-04-12T11:17:35.614Z,6.15
2023-04-12T11:20:16.533Z,3.85
2023-04-12T11:22:58.565Z,5.00
2023-04-12T11:25:36.155Z,6.85
2023-04-12T11:28:27.344Z,3.67
2023-04-12T11:31:06.393Z,3.30
2023-04-12T11:33:45.157Z,7.60
2023-04-12T11:36:22.615Z,3.28
2023-04-12T11:39:01.973Z,4.80
2023-04-12T11:41:39.171Z,4.03
2023-04-12T11:44:22.245Z,4.22
2023-04-12T11:47:02.183Z,5.00
2023-04-12T11:49:40.336Z,3.95
2023-04-12T11:52:14.736Z,7.50
2023-04-12T11:54:56.921Z,3.80
2023-04-12T11:57:34.601Z,3.08
2023-04-12T12:00:16.008Z,6.38
2023-04-12T12:03:06.675Z,3.60
2023-04-12T12:05:43.736Z,3.53
2023-04-12T12:08:19.367Z,6.18
2023-04-12T12:11:07.765Z,3.03
2023-04-12T12:13:49.876Z,3.08
2023-04-12T12:16:24.776Z,3.63
2023-04-12T12:19:01.186Z,1.83
2023-04-12T12:21:38.121Z,2.60
2023-04-12T12:24:14.741Z,3.17
2023-04-12T12:26:54.649Z,4.22
2023-04-12T12:29:38.315Z,3.42
2023-04-12T12:32:17.581Z,3.30
2023-04-12T12:34:59.686Z,3.40
2023-04-12T12:40:12.394Z,5.88
2023-04-12T12:42:55.280Z,3.13
2023-04-12T12:45:34.569Z,3.00
2023-04-12T12:48:13.782Z,3.60
2023-04-12T12:50:52.666Z,3.80
2023-04-12T12:53:30.584Z,3.75
2023-04-12T12:56:14.094Z,2.88
2023-04-12T12:58:53.200Z,3.63
2023-04-12T13:01:33.308Z,6.20
2023-04-12T13:04:06.027Z,2.25
2023-04-12T13:06:42.593Z,4.43
2023-04-12T13:09:20.474Z,6.50
2023-04-12T13:11:58.151Z,3.58
2023-04-12T13:14:37.315Z,5.82
2023-04-12T13:17:14.428Z,4.90
2023-04-12T13:19:52.505Z,4.93
2023-04-12T13:22:29.857Z,4.10
2023-04-12T13:25:08.068Z,5.53
2023-04-12T13:27:43.329Z,7.43
2023-04-12T13:30:25.099Z,5.05
2023-04-12T13:32:58.402Z,3.90
2023-04-12T13:35:35.620Z,3.75
2023-04-12T13:38:12.081Z,4.15
2023-04-12T13:40:49.995Z,2.50
2023-04-12T13:43:28.750Z,2.45
2023-04-12T13:46:15.063Z,2.63
2023-04-12T13:48:55.641Z,4.45
2023-04-12T13:51:33.593Z,3.70
2023-04-12T13:54:12.761Z,3.75
2023-04-12T13:56:48.584Z,3.85
2023-04-12T13:59:26.144Z,5.70
2023-04-12T14:02:07.606Z,3.08
2023-04-12T14:04:54.126Z,3.30
2023-04-12T14:10:06.117Z,2.95
2023-04-12T14:12:43.304Z,1.95
2023-04-12T14:15:20.091Z,5.80
2023-04-12T14:17:59.308Z,2.55
2023-04-12T14:20:35.601Z,3.90
2023-04-12T14:23:12.742Z,3.55
2023-04-12T14:25:51.113Z,2.43
2023-04-12T14:28:31.163Z,4.95
2023-04-12T14:31:08.843Z,2.72
2023-04-12T14:33:51.019Z,4.55
2023-04-12T14:36:27.927Z,4.70
2023-04-12T14:39:04.346Z,3.40
2023-04-12T14:41:40.325Z,4.73
2023-04-12T14:46:53.529Z,4.82
2023-04-12T14:49:33.384Z,3.33
2023-04-12T14:52:10.397Z,3.17
2023-04-12T14:54:46.593Z,3.40
2023-04-12T14:57:22.181Z,3.13
2023-04-12T14:59:59.195Z,2.67
2023-04-12T15:02:35.839Z,2.95
2023-04-12T15:05:17.226Z,6.40
2023-04-12T15:07:52.499Z,3.63
2023-04-12T15:10:31.793Z,4.13
2023-04-12T15:13:11.268Z,3.55
2023-04-12T15:15:47.990Z,4.93
2023-04-12T15:18:27.610Z,3.15
2023-04-12T15:21:09.217Z,5.63
2023-04-12T15:23:46.558Z,3.60
2023-04-12T15:26:28.023Z,4.68
2023-04-12T15:29:05.216Z,5.30
2023-04-12T15:31:42.288Z,2.65
2023-04-12T15:34:18.377Z,4.45
2023-04-12T15:39:36.171Z,4.40
2023-04-12T15:42:15.319Z,4.03
2023-04-12T15:44:53.214Z,4.47
2023-04-12T15:47:31.755Z,1.70
2023-04-12T15:50:12.951Z,4.10
2023-04-12T15:52:54.719Z,4.28
2023-04-12T15:55:30.936Z,6.05
2023-04-12T15:58:09.342Z,2.83
2023-04-12T16:00:44.924Z,6.20
2023-04-12T16:03:23.845Z,2.17
2023-04-12T16:06:01.452Z,4.80
2023-04-12T16:08:35.570Z,4.07
2023-04-12T16:11:15.198Z,2.95
2023-04-12T16:13:50.867Z,4.50
2023-04-12T16:16:29.776Z,4.53
2023-04-12T16:19:04.016Z,6.22
2023-04-12T16:21:39.210Z,3.92
2023-04-12T16:24:14.901Z,2.97
2023-04-12T16:26:57.945Z,4.40
2023-04-12T16:29:35.788Z,1.85
2023-04-12T16:32:12.862Z,2.97
2023-04-12T16:34:51.776Z,4.22
2023-04-12T16:37:28.619Z,3.80
2023-04-12T16:40:06.115Z,4.95
2023-04-12T16:42:52.892Z,3.35
2023-04-12T16:45:34.686Z,4.45
2023-04-12T16:48:10.819Z,4.57
2023-04-12T16:50:48.826Z,4.27
2023-04-12T16:53:27.536Z,5.55
2023-04-12T16:56:09.081Z,3.22
2023-04-12T16:58:53.535Z,3.50
2023-04-12T17:01:30.851Z,4.15
2023-04-12T17:04:08.566Z,4.75
2023-04-12T17:06:46.029Z,4.95
2023-04-12T17:09:26.029Z,5.43
2023-04-12T17:12:03.884Z,5.13
2023-04-12T17:14:46.252Z,4.50
2023-04-12T17:17:26.920Z,9.40
2023-04-12T17:20:08.977Z,4.00
2023-04-12T17:22:42.694Z,5.90
2023-04-12T17:25:26.897Z,7.10
2023-04-12T17:28:08.995Z,5.63
2023-04-12T17:30:51.180Z,8.65
2023-04-12T17:33:30.054Z,6.10
2023-04-12T17:36:11.514Z,7.65
2023-04-12T17:38:50.492Z,6.10
2023-04-12T17:41:31.017Z,7.47
2023-04-12T17:44:15.008Z,4.10
2023-04-12T17:46:58.076Z,8.95
2023-04-12T17:49:41.263Z,11.95
2023-04-12T17:52:20.647Z,6.13
2023-04-12T17:54:57.561Z,6.20
2023-04-12T17:57:34.453Z,12.57
2023-04-12T18:00:14.700Z,24.52
2023-04-12T18:02:57.707Z,22.65
2023-04-12T18:05:35.378Z,19.63
2023-04-12T18:08:16.836Z,11.05
2023-04-12T18:10:55.654Z,11.27
2023-04-12T18:13:35.221Z,15.50
2023-04-12T18:16:11.935Z,14.60
2023-04-12T18:18:52.964Z,12.88
2023-04-12T18:21:29.650Z,13.20
2023-04-12T18:24:06.581Z,11.98
2023-04-12T18:26:43.248Z,12.20
2023-04-12T18:29:19.822Z,11.63
2023-04-12T18:31:58.378Z,8.18
2023-04-12T18:34:39.099Z,10.93
2023-04-12T18:37:16.915Z,8.82
2023-04-12T18:39:53.614Z,8.55
2023-04-12T18:42:31.506Z,8.23
2023-04-12T18:45:14.958Z,12.13
2023-04-12T18:47:53.475Z,6.95
2023-04-12T18:50:34.964Z,9.95
2023-04-12T18:53:11.407Z,8.65
2023-04-12T18:55:50.664Z,4.95
2023-04-12T18:58:36.910Z,6.80
2023-04-12T19:01:23.189Z,6.28
2023-04-12T19:04:01.873Z,9.15
2023-04-12T19:06:42.462Z,6.25
2023-04-12T19:09:21.226Z,8.30
2023-04-12T19:11:57.563Z,9.00
2023-04-12T19:14:36.385Z,8.65
2023-04-12T19:17:12.223Z,14.13
2023-04-12T19:19:49.069Z,10.98
2023-04-12T19:22:32.561Z,11.45
2023-04-12T19:25:11.420Z,10.20
2023-04-12T19:27:47.384Z,12.02
2023-04-12T19:30:25.049Z,13.80
2023-04-12T19:33:02.501Z,14.38
2023-04-12T19:35:42.654Z,12.85
2023-04-12T19:38:17.382Z,14.90
2023-04-12T19:40:58.394Z,11.85
2023-04-12T19:43:35.959Z,11.20
2023-04-12T19:46:12.716Z,10.20
2023-04-12T19:48:51.974Z,12.43
2023-04-12T19:51:26.634Z,12.40
2023-04-12T19:54:03.972Z,11.07
2023-04-12T19:56:49.491Z,8.75
2023-04-12T19:59:28.172Z,10.85
2023-04-12T20:02:06.229Z,9.20
2023-04-12T20:04:41.650Z,12.15
2023-04-12T20:07:20.583Z,10.65
2023-04-12T20:09:55.296Z,12.85
2023-04-12T20:12:35.523Z,11.55
2023-04-12T20:15:14.911Z,12.75
2023-04-12T20:17:52.419Z,9.82
2023-04-12T20:20:29.718Z,11.45
2023-04-12T20:23:07.885Z,12.82
2023-04-12T20:25:49.611Z,11.55
2023-04-12T20:28:29.583Z,11.45
2023-04-12T20:31:07.682Z,16.58
2023-04-12T20:33:45.552Z,14.57
2023-04-12T20:36:23.102Z,10.45
2023-04-12T20:38:59.954Z,13.98
2023-04-12T20:41:38.760Z,9.35
2023-04-12T20:44:19.811Z,16.33
2023-04-12T20:46:57.027Z,15.95
2023-04-12T20:49:33.753Z,12.52
2023-04-12T20:52:09.885Z,11.90
2023-04-12T20:54:45.958Z,10.13
2023-04-12T21:02:39.433Z,12.25
2023-04-12T21:05:17.231Z,12.77
2023-04-12T21:07:54.338Z,11.07
2023-04-12T21:10:29.411Z,11.38
2023-04-12T21:13:06.703Z,13.45
2023-04-12T21:15:45.995Z,11.68
2023-04-12T21:18:22.258Z,11.90
2023-04-12T21:21:05.354Z,10.77
2023-04-12T21:23:45.345Z,9.70
2023-04-12T21:26:19.481Z,13.77
2023-04-12T21:28:56.243Z,14.20
2023-04-12T21:31:34.904Z,13.10
2023-04-12T21:34:10.831Z,13.15
2023-04-12T21:36:47.352Z,12.85
2023-04-12T21:39:24.249Z,9.82
2023-04-12T21:41:57.969Z,13.23
2023-04-12T21:44:34.614Z,12.77
2023-04-12T21:47:14.609Z,12.52
2023-04-12T21:49:50.203Z,13.88
2023-04-12T21:52:25.219Z,12.83
2023-04-12T21:55:00.445Z,14.32
2023-04-12T21:57:35.882Z,15.77
2023-04-12T22:00:16.279Z,14.50
2023-04-12T22:02:54.948Z,17.15
2023-04-12T22:05:30.562Z,15.45
2023-04-12T22:08:07.757Z,18.25
2023-04-12T22:10:43.288Z,15.52
2023-04-12T22:13:19.014Z,13.70
2023-04-12T22:15:55.463Z,17.73
2023-04-12T22:18:38.773Z,14.50
2023-04-12T22:21:14.460Z,17.15
2023-04-12T22:23:51.650Z,12.77
2023-04-12T22:26:27.956Z,18.35
2023-04-12T22:29:04.871Z,15.57
2023-04-12T22:31:40.655Z,17.60
2023-04-12T22:34:19.756Z,22.20
2023-04-12T22:37:03.305Z,25.03
2023-04-12T22:39:38.282Z,25.73
2023-04-12T22:42:12.866Z,23.87
2023-04-12T22:44:50.125Z,24.67
2023-04-12T22:47:25.566Z,26.80
2023-04-12T22:50:08.851Z,25.38
2023-04-12T22:52:44.277Z,28.25
2023-04-12T22:55:19.327Z,21.30
2023-04-12T22:57:56.918Z,18.93
2023-04-12T23:00:37.408Z,15.75
2023-04-12T23:03:11.862Z,15.73
2023-04-12T23:05:53.163Z,17.10
2023-04-12T23:08:29.459Z,16.92
2023-04-12T23:11:05.681Z,19.27
2023-04-12T23:13:41.592Z,17.92
2023-04-12T23:16:18.115Z,15.60
2023-04-12T23:18:52.879Z,17.95
2023-04-12T23:21:30.918Z,15.05
2023-04-12T23:24:06.873Z,16.00
2023-04-12T23:26:42.906Z,14.87
2023-04-12T23:29:18.723Z,16.23
2023-04-12T23:31:54.555Z,16.17
2023-04-12T23:34:31.174Z,16.55
2023-04-12T23:37:09.117Z,16.80
2023-04-12T23:39:45.303Z,22.00
2023-04-12T23:47:40.572Z,17.83
2023-04-12T23:50:17.750Z,15.32
2023-04-12T23:52:59.929Z,17.40
2023-04-12T23:55:34.696Z,14.82
2023-04-12T23:58:10.194Z,16.63
